EXS28ZQ LOWI-LDDU
Flight info
| Callsign | EXS28ZQ |
|---|---|
| Flight time | 1h 9m |
| Altitude | 39000 |
| Route | RTT DCT VEKEN DCT SABAD DCT SIPAL DCT NERRA |
| Aircraft | B738/M-SDE2E3FGHIRWXY/LB1 |
Departure
| Time | 2026-05-06 17:34 |
|---|---|
| Airport | Innsbruck Airport (LOWI) |
Arrival
| Time | 2026-05-06 18:43 |
|---|---|
| Airport | Dubrovnik Ruđer Bošković Airport (LDDU) |
| Time | Latitude | Longitude | Altitude | Speed | Heading |
|---|---|---|---|---|---|
| 2026-05-06 17:24 | 47.25835 | 11.35179 | 1900 ft | 0 kts | 173° |
| 2026-05-06 17:27 | 47.25840 | 11.35178 | 1889 ft | 4 kts | 172° |
| 2026-05-06 17:28 | 47.25863 | 11.35173 | 1889 ft | 4 kts | 181° |
| 2026-05-06 17:28 | 47.25883 | 11.35184 | 1895 ft | 4 kts | 243° |
| 2026-05-06 17:28 | 47.25889 | 11.35216 | 1887 ft | 1 kts | 262° |
| 2026-05-06 17:28 | 47.25890 | 11.35222 | 1887 ft | 0 kts | 262° |
| 2026-05-06 17:31 | 47.25887 | 11.35197 | 1893 ft | 5 kts | 257° |
| 2026-05-06 17:31 | 47.25879 | 11.35140 | 1890 ft | 6 kts | 261° |
| 2026-05-06 17:32 | 47.25872 | 11.35065 | 1900 ft | 11 kts | 263° |
| 2026-05-06 17:32 | 47.25859 | 11.34897 | 1900 ft | 22 kts | 259° |
| 2026-05-06 17:32 | 47.25826 | 11.34615 | 1900 ft | 33 kts | 262° |
| 2026-05-06 17:32 | 47.25787 | 11.34237 | 1898 ft | 39 kts | 261° |
| 2026-05-06 17:33 | 47.25813 | 11.33872 | 1905 ft | 34 kts | 305° |
| 2026-05-06 17:33 | 47.25909 | 11.33682 | 1907 ft | 6 kts | 315° |
| 2026-05-06 17:33 | 47.25946 | 11.33697 | 1909 ft | 7 kts | 59° |
| 2026-05-06 17:33 | 47.25966 | 11.33877 | 1902 ft | 44 kts | 81° |
| 2026-05-06 17:34 | 47.26054 | 11.34699 | 1899 ft | 116 kts | 81° |
| 2026-05-06 17:34 | 47.26212 | 11.36150 | 2046 ft | 160 kts | 86° |
| 2026-05-06 17:34 | 47.26402 | 11.37765 | 2790 ft | 164 kts | 81° |
| 2026-05-06 17:34 | 47.26625 | 11.39460 | 3486 ft | 172 kts | 79° |
| 2026-05-06 17:35 | 47.26872 | 11.41228 | 4157 ft | 182 kts | 79° |
| 2026-05-06 17:35 | 47.27133 | 11.43132 | 4724 ft | 195 kts | 82° |
| 2026-05-06 17:35 | 47.27426 | 11.45105 | 5524 ft | 198 kts | 78° |
| 2026-05-06 17:36 | 47.28189 | 11.49105 | 6943 ft | 207 kts | 77° |
| 2026-05-06 17:36 | 47.28590 | 11.51192 | 7507 ft | 213 kts | 77° |
| 2026-05-06 17:36 | 47.28991 | 11.53281 | 8187 ft | 214 kts | 78° |
| 2026-05-06 17:36 | 47.29399 | 11.55429 | 8727 ft | 220 kts | 78° |
| 2026-05-06 17:37 | 47.29803 | 11.57563 | 9339 ft | 219 kts | 78° |
| 2026-05-06 17:37 | 47.30218 | 11.59769 | 9784 ft | 227 kts | 78° |
| 2026-05-06 17:37 | 47.30638 | 11.62009 | 10311 ft | 227 kts | 78° |
| 2026-05-06 17:37 | 47.31067 | 11.64265 | 10823 ft | 229 kts | 75° |
| 2026-05-06 17:38 | 47.31799 | 11.66415 | 11150 ft | 246 kts | 58° |
| 2026-05-06 17:38 | 47.32819 | 11.68568 | 11307 ft | 265 kts | 59° |
| 2026-05-06 17:38 | 47.33350 | 11.71208 | 11416 ft | 277 kts | 96° |
| 2026-05-06 17:38 | 47.32768 | 11.73893 | 11674 ft | 278 kts | 128° |
| 2026-05-06 17:39 | 47.31645 | 11.76344 | 11819 ft | 301 kts | 129° |
| 2026-05-06 17:39 | 47.30402 | 11.78989 | 12015 ft | 325 kts | 129° |
| 2026-05-06 17:39 | 47.29080 | 11.81802 | 12447 ft | 341 kts | 129° |
| 2026-05-06 17:39 | 47.27732 | 11.84704 | 13238 ft | 346 kts | 129° |
| 2026-05-06 17:40 | 47.26364 | 11.87671 | 13898 ft | 354 kts | 129° |
| 2026-05-06 17:40 | 47.24974 | 11.90705 | 14660 ft | 358 kts | 129° |
| 2026-05-06 17:40 | 47.23592 | 11.93736 | 15545 ft | 359 kts | 129° |
| 2026-05-06 17:40 | 47.22203 | 11.96784 | 16232 ft | 366 kts | 129° |
| 2026-05-06 17:41 | 47.20772 | 11.99923 | 16961 ft | 372 kts | 129° |
| 2026-05-06 17:41 | 47.19315 | 12.03115 | 17642 ft | 377 kts | 129° |
| 2026-05-06 17:41 | 47.17847 | 12.06337 | 18330 ft | 382 kts | 129° |
| 2026-05-06 17:41 | 47.16363 | 12.09590 | 19008 ft | 384 kts | 129° |
| 2026-05-06 17:42 | 47.14868 | 12.12866 | 19615 ft | 388 kts | 129° |
| 2026-05-06 17:42 | 47.13353 | 12.16176 | 20188 ft | 392 kts | 129° |
| 2026-05-06 17:42 | 47.11825 | 12.19514 | 20801 ft | 396 kts | 130° |
| 2026-05-06 17:42 | 47.10282 | 12.22878 | 21492 ft | 399 kts | 130° |
| 2026-05-06 17:43 | 47.08719 | 12.26280 | 22142 ft | 403 kts | 130° |
| 2026-05-06 17:43 | 47.07140 | 12.29715 | 22765 ft | 406 kts | 130° |
| 2026-05-06 17:43 | 47.05574 | 12.33118 | 23336 ft | 410 kts | 130° |
| 2026-05-06 17:43 | 47.03969 | 12.36599 | 23840 ft | 414 kts | 130° |
| 2026-05-06 17:44 | 47.02347 | 12.40115 | 24326 ft | 418 kts | 131° |
| 2026-05-06 17:44 | 47.00709 | 12.43658 | 24823 ft | 422 kts | 131° |
| 2026-05-06 17:44 | 46.99057 | 12.47231 | 25354 ft | 423 kts | 131° |
| 2026-05-06 17:44 | 46.97400 | 12.50807 | 25827 ft | 427 kts | 131° |
| 2026-05-06 17:45 | 46.95722 | 12.54422 | 26231 ft | 431 kts | 131° |
| 2026-05-06 17:45 | 46.94038 | 12.58048 | 26741 ft | 432 kts | 131° |
| 2026-05-06 17:45 | 46.92334 | 12.61713 | 27124 ft | 438 kts | 132° |
| 2026-05-06 17:45 | 46.90612 | 12.65407 | 27540 ft | 441 kts | 132° |
| 2026-05-06 17:46 | 46.88875 | 12.69132 | 28009 ft | 444 kts | 132° |
| 2026-05-06 17:46 | 46.87125 | 12.72880 | 28463 ft | 447 kts | 132° |
| 2026-05-06 17:46 | 46.85366 | 12.76645 | 28896 ft | 450 kts | 132° |
| 2026-05-06 17:46 | 46.83590 | 12.80437 | 29287 ft | 454 kts | 132° |
| 2026-05-06 17:47 | 46.81799 | 12.84257 | 29661 ft | 457 kts | 132° |
| 2026-05-06 17:47 | 46.79998 | 12.88093 | 30041 ft | 459 kts | 132° |
| 2026-05-06 17:47 | 46.78185 | 12.91951 | 30390 ft | 461 kts | 132° |
| 2026-05-06 17:47 | 46.76394 | 12.95759 | 30762 ft | 462 kts | 132° |
| 2026-05-06 17:48 | 46.74574 | 12.99625 | 31144 ft | 461 kts | 132° |
| 2026-05-06 17:48 | 46.72755 | 13.03482 | 31524 ft | 460 kts | 133° |
| 2026-05-06 17:48 | 46.70943 | 13.07321 | 32039 ft | 457 kts | 132° |
| 2026-05-06 17:48 | 46.69143 | 13.11126 | 32483 ft | 456 kts | 132° |
| 2026-05-06 17:49 | 46.67341 | 13.14927 | 32849 ft | 456 kts | 132° |
| 2026-05-06 17:49 | 46.65531 | 13.18737 | 33199 ft | 457 kts | 132° |
| 2026-05-06 17:49 | 46.63726 | 13.22533 | 33636 ft | 455 kts | 132° |
| 2026-05-06 17:49 | 46.61922 | 13.26325 | 33996 ft | 455 kts | 132° |
| 2026-05-06 17:50 | 46.60730 | 13.28829 | 34177 ft | 455 kts | 132° |
| 2026-05-06 17:50 | 46.58924 | 13.32614 | 34418 ft | 456 kts | 131° |
| 2026-05-06 17:50 | 46.57102 | 13.36413 | 34687 ft | 456 kts | 133° |
| 2026-05-06 17:50 | 46.54366 | 13.40960 | 35073 ft | 447 kts | 142° |
| 2026-05-06 17:51 | 46.52882 | 13.43039 | 35289 ft | 446 kts | 143° |
| 2026-05-06 17:51 | 46.50618 | 13.46141 | 35563 ft | 446 kts | 143° |
| 2026-05-06 17:51 | 46.48350 | 13.49220 | 35804 ft | 447 kts | 143° |
| 2026-05-06 17:51 | 46.46077 | 13.52313 | 36106 ft | 447 kts | 143° |
| 2026-05-06 17:52 | 46.43811 | 13.55414 | 36400 ft | 447 kts | 142° |
| 2026-05-06 17:52 | 46.41557 | 13.58511 | 36630 ft | 446 kts | 142° |
| 2026-05-06 17:52 | 46.39304 | 13.61617 | 36867 ft | 447 kts | 142° |
| 2026-05-06 17:52 | 46.37053 | 13.64723 | 36871 ft | 449 kts | 142° |
| 2026-05-06 17:53 | 46.32567 | 13.70912 | 36874 ft | 446 kts | 142° |
| 2026-05-06 17:53 | 46.28098 | 13.77067 | 36873 ft | 441 kts | 142° |
| 2026-05-06 17:54 | 46.23673 | 13.83143 | 36891 ft | 436 kts | 142° |
| 2026-05-06 17:54 | 46.19235 | 13.89213 | 36877 ft | 442 kts | 142° |
| 2026-05-06 17:55 | 46.14736 | 13.95350 | 36898 ft | 447 kts | 142° |
| 2026-05-06 17:55 | 46.10237 | 14.01482 | 36897 ft | 449 kts | 142° |
| 2026-05-06 17:56 | 46.05686 | 14.07671 | 36900 ft | 449 kts | 142° |
| 2026-05-06 17:56 | 46.01133 | 14.13848 | 36916 ft | 449 kts | 142° |
| 2026-05-06 17:57 | 45.96578 | 14.20012 | 36914 ft | 448 kts | 142° |
| 2026-05-06 17:57 | 45.92033 | 14.26148 | 36914 ft | 447 kts | 142° |
| 2026-05-06 17:58 | 45.87499 | 14.32254 | 36923 ft | 446 kts | 142° |
| 2026-05-06 17:58 | 45.83008 | 14.38288 | 36932 ft | 445 kts | 142° |
| 2026-05-06 17:59 | 45.78487 | 14.44348 | 36930 ft | 444 kts | 142° |
| 2026-05-06 17:59 | 45.73969 | 14.50389 | 36920 ft | 443 kts | 142° |
| 2026-05-06 18:00 | 45.69491 | 14.56364 | 36938 ft | 442 kts | 143° |
| 2026-05-06 18:00 | 45.64993 | 14.62351 | 36937 ft | 442 kts | 143° |
| 2026-05-06 18:01 | 45.60492 | 14.68329 | 36931 ft | 441 kts | 143° |
| 2026-05-06 18:01 | 45.55988 | 14.74297 | 36943 ft | 442 kts | 143° |
| 2026-05-06 18:02 | 45.51474 | 14.80269 | 36941 ft | 443 kts | 143° |
| 2026-05-06 18:02 | 45.46939 | 14.86237 | 36930 ft | 444 kts | 144° |
| 2026-05-06 18:03 | 45.42077 | 14.91447 | 36935 ft | 439 kts | 151° |
| 2026-05-06 18:03 | 45.37021 | 14.96342 | 36943 ft | 440 kts | 152° |
| 2026-05-06 18:04 | 45.31949 | 15.01258 | 36937 ft | 442 kts | 151° |
| 2026-05-06 18:04 | 45.26873 | 15.06236 | 36937 ft | 444 kts | 151° |
| 2026-05-06 18:05 | 45.21773 | 15.11259 | 36927 ft | 445 kts | 151° |
| 2026-05-06 18:05 | 45.16711 | 15.16242 | 36940 ft | 446 kts | 151° |
| 2026-05-06 18:06 | 45.11605 | 15.21255 | 36933 ft | 446 kts | 151° |
| 2026-05-06 18:06 | 45.06507 | 15.26249 | 36944 ft | 446 kts | 151° |
| 2026-05-06 18:07 | 45.01394 | 15.31246 | 36951 ft | 446 kts | 151° |
| 2026-05-06 18:07 | 44.96314 | 15.36198 | 36952 ft | 447 kts | 151° |
| 2026-05-06 18:08 | 44.91192 | 15.41179 | 36952 ft | 447 kts | 151° |
| 2026-05-06 18:08 | 44.86061 | 15.46160 | 36967 ft | 448 kts | 151° |
| 2026-05-06 18:09 | 44.80920 | 15.51139 | 36962 ft | 448 kts | 151° |
| 2026-05-06 18:09 | 44.75772 | 15.56114 | 36966 ft | 449 kts | 151° |
| 2026-05-06 18:10 | 44.70619 | 15.61084 | 36964 ft | 449 kts | 152° |
| 2026-05-06 18:10 | 44.65474 | 15.66035 | 36978 ft | 448 kts | 152° |
| 2026-05-06 18:11 | 44.60327 | 15.70977 | 36978 ft | 448 kts | 152° |
| 2026-05-06 18:11 | 44.55182 | 15.75905 | 36983 ft | 447 kts | 152° |
| 2026-05-06 18:12 | 44.50039 | 15.80821 | 36987 ft | 447 kts | 152° |
| 2026-05-06 18:12 | 44.44926 | 15.85697 | 37009 ft | 448 kts | 152° |
| 2026-05-06 18:13 | 44.39759 | 15.90615 | 36983 ft | 448 kts | 152° |
| 2026-05-06 18:13 | 44.34600 | 15.95514 | 36992 ft | 448 kts | 153° |
| 2026-05-06 18:14 | 44.29438 | 16.00406 | 36857 ft | 450 kts | 153° |
| 2026-05-06 18:14 | 44.26832 | 16.02869 | 36368 ft | 451 kts | 153° |
| 2026-05-06 18:14 | 44.24231 | 16.05328 | 35806 ft | 449 kts | 153° |
| 2026-05-06 18:15 | 44.21650 | 16.07767 | 35258 ft | 448 kts | 153° |
| 2026-05-06 18:15 | 44.19085 | 16.10190 | 34844 ft | 444 kts | 154° |
| 2026-05-06 18:15 | 44.16534 | 16.12596 | 34402 ft | 440 kts | 154° |
| 2026-05-06 18:15 | 44.14039 | 16.14946 | 33958 ft | 437 kts | 154° |
| 2026-05-06 18:16 | 44.11535 | 16.17301 | 33505 ft | 433 kts | 154° |
| 2026-05-06 18:16 | 44.09043 | 16.19641 | 33047 ft | 430 kts | 154° |
| 2026-05-06 18:16 | 44.06573 | 16.21959 | 32624 ft | 425 kts | 153° |
| 2026-05-06 18:16 | 44.04130 | 16.24247 | 32206 ft | 422 kts | 153° |
| 2026-05-06 18:17 | 44.01703 | 16.26519 | 31774 ft | 419 kts | 153° |
| 2026-05-06 18:17 | 43.99292 | 16.28772 | 31377 ft | 415 kts | 153° |
| 2026-05-06 18:17 | 43.96906 | 16.31001 | 30977 ft | 412 kts | 153° |
| 2026-05-06 18:17 | 43.94536 | 16.33213 | 30580 ft | 409 kts | 153° |
| 2026-05-06 18:18 | 43.92177 | 16.35411 | 30185 ft | 407 kts | 153° |
| 2026-05-06 18:18 | 43.89829 | 16.37598 | 29723 ft | 404 kts | 152° |
| 2026-05-06 18:18 | 43.87505 | 16.39761 | 29288 ft | 400 kts | 152° |
| 2026-05-06 18:18 | 43.85208 | 16.41898 | 28868 ft | 395 kts | 152° |
| 2026-05-06 18:19 | 43.82967 | 16.43981 | 28464 ft | 391 kts | 152° |
| 2026-05-06 18:19 | 43.80721 | 16.46067 | 28068 ft | 387 kts | 152° |
| 2026-05-06 18:19 | 43.78497 | 16.48128 | 27644 ft | 384 kts | 152° |
| 2026-05-06 18:19 | 43.76282 | 16.50179 | 27246 ft | 381 kts | 152° |
| 2026-05-06 18:20 | 43.74084 | 16.52211 | 26841 ft | 379 kts | 152° |
| 2026-05-06 18:20 | 43.71900 | 16.54230 | 26438 ft | 377 kts | 151° |
| 2026-05-06 18:20 | 43.69722 | 16.56242 | 26047 ft | 375 kts | 151° |
| 2026-05-06 18:20 | 43.67561 | 16.58235 | 25657 ft | 373 kts | 151° |
| 2026-05-06 18:21 | 43.65404 | 16.60224 | 25239 ft | 372 kts | 151° |
| 2026-05-06 18:21 | 43.63247 | 16.62210 | 24832 ft | 371 kts | 150° |
| 2026-05-06 18:21 | 43.61107 | 16.64180 | 24467 ft | 369 kts | 150° |
| 2026-05-06 18:21 | 43.58975 | 16.66141 | 24083 ft | 368 kts | 150° |
| 2026-05-06 18:22 | 43.56873 | 16.68073 | 23709 ft | 367 kts | 150° |
| 2026-05-06 18:22 | 43.54751 | 16.70021 | 23260 ft | 366 kts | 150° |
| 2026-05-06 18:22 | 43.52638 | 16.71961 | 22838 ft | 364 kts | 150° |
| 2026-05-06 18:22 | 43.50534 | 16.73890 | 22436 ft | 361 kts | 150° |
| 2026-05-06 18:23 | 43.48452 | 16.75798 | 22038 ft | 359 kts | 150° |
| 2026-05-06 18:23 | 43.46383 | 16.77692 | 21661 ft | 355 kts | 150° |
| 2026-05-06 18:23 | 43.44331 | 16.79569 | 21299 ft | 352 kts | 150° |
| 2026-05-06 18:23 | 43.42294 | 16.81431 | 20914 ft | 351 kts | 150° |
| 2026-05-06 18:24 | 43.40254 | 16.83291 | 20557 ft | 356 kts | 150° |
| 2026-05-06 18:24 | 43.38110 | 16.85238 | 20185 ft | 383 kts | 150° |
| 2026-05-06 18:24 | 43.35854 | 16.87287 | 19757 ft | 391 kts | 150° |
| 2026-05-06 18:24 | 43.33587 | 16.89354 | 19312 ft | 389 kts | 150° |
| 2026-05-06 18:25 | 43.31345 | 16.91401 | 18892 ft | 385 kts | 150° |
| 2026-05-06 18:25 | 43.29122 | 16.93426 | 18473 ft | 382 kts | 150° |
| 2026-05-06 18:25 | 43.26913 | 16.95435 | 18018 ft | 379 kts | 150° |
| 2026-05-06 18:25 | 43.24744 | 16.97403 | 17567 ft | 376 kts | 150° |
| 2026-05-06 18:26 | 43.22573 | 16.99372 | 17149 ft | 372 kts | 150° |
| 2026-05-06 18:26 | 43.20421 | 17.01322 | 16740 ft | 369 kts | 150° |
| 2026-05-06 18:26 | 43.18285 | 17.03255 | 16337 ft | 366 kts | 149° |
| 2026-05-06 18:26 | 43.16165 | 17.05172 | 15939 ft | 364 kts | 149° |
| 2026-05-06 18:27 | 43.14118 | 17.07198 | 15529 ft | 364 kts | 141° |
| 2026-05-06 18:27 | 43.12399 | 17.09752 | 15201 ft | 366 kts | 131° |
| 2026-05-06 18:27 | 43.10823 | 17.12514 | 14742 ft | 368 kts | 130° |
| 2026-05-06 18:27 | 43.09286 | 17.15305 | 14349 ft | 365 kts | 129° |
| 2026-05-06 18:28 | 43.07766 | 17.18092 | 13956 ft | 365 kts | 129° |
| 2026-05-06 18:28 | 43.06273 | 17.20826 | 13534 ft | 362 kts | 129° |
| 2026-05-06 18:28 | 43.04768 | 17.23570 | 13115 ft | 359 kts | 129° |
| 2026-05-06 18:28 | 43.03272 | 17.26287 | 12739 ft | 355 kts | 130° |
| 2026-05-06 18:29 | 43.01791 | 17.28967 | 12357 ft | 351 kts | 130° |
| 2026-05-06 18:29 | 43.00328 | 17.31609 | 11979 ft | 347 kts | 130° |
| 2026-05-06 18:29 | 42.98872 | 17.34232 | 11595 ft | 344 kts | 130° |
| 2026-05-06 18:29 | 42.97429 | 17.36829 | 11214 ft | 340 kts | 130° |
| 2026-05-06 18:30 | 42.96006 | 17.39387 | 10865 ft | 336 kts | 130° |
| 2026-05-06 18:30 | 42.94602 | 17.41908 | 10498 ft | 332 kts | 130° |
| 2026-05-06 18:30 | 42.93217 | 17.44395 | 10278 ft | 326 kts | 130° |
| 2026-05-06 18:30 | 42.91874 | 17.46805 | 10151 ft | 320 kts | 130° |
| 2026-05-06 18:31 | 42.90544 | 17.49189 | 9978 ft | 311 kts | 130° |
| 2026-05-06 18:31 | 42.89240 | 17.51524 | 9622 ft | 307 kts | 130° |
| 2026-05-06 18:31 | 42.87958 | 17.53818 | 9333 ft | 301 kts | 130° |
| 2026-05-06 18:31 | 42.86690 | 17.56082 | 9015 ft | 298 kts | 130° |
| 2026-05-06 18:32 | 42.85441 | 17.58312 | 8723 ft | 294 kts | 131° |
| 2026-05-06 18:32 | 42.84205 | 17.60518 | 8431 ft | 290 kts | 131° |
| 2026-05-06 18:32 | 42.82990 | 17.62685 | 8125 ft | 286 kts | 130° |
| 2026-05-06 18:32 | 42.81790 | 17.64827 | 7850 ft | 282 kts | 131° |
| 2026-05-06 18:33 | 42.80601 | 17.66945 | 7553 ft | 279 kts | 131° |
| 2026-05-06 18:33 | 42.79441 | 17.69009 | 7263 ft | 269 kts | 131° |
| 2026-05-06 18:33 | 42.78323 | 17.70995 | 6999 ft | 260 kts | 130° |
| 2026-05-06 18:33 | 42.77283 | 17.72904 | 6736 ft | 254 kts | 126° |
| 2026-05-06 18:34 | 42.76471 | 17.75037 | 6493 ft | 254 kts | 118° |
| 2026-05-06 18:34 | 42.75756 | 17.77196 | 6274 ft | 247 kts | 119° |
| 2026-05-06 18:34 | 42.75009 | 17.79264 | 5968 ft | 240 kts | 121° |
| 2026-05-06 18:34 | 42.74247 | 17.81250 | 5692 ft | 233 kts | 121° |
| 2026-05-06 18:35 | 42.73498 | 17.83155 | 5445 ft | 225 kts | 122° |
| 2026-05-06 18:35 | 42.72768 | 17.84983 | 5237 ft | 215 kts | 122° |
| 2026-05-06 18:35 | 42.72071 | 17.86729 | 5057 ft | 204 kts | 122° |
| 2026-05-06 18:35 | 42.71413 | 17.88380 | 4910 ft | 193 kts | 122° |
| 2026-05-06 18:36 | 42.70789 | 17.89944 | 4779 ft | 184 kts | 122° |
| 2026-05-06 18:36 | 42.70176 | 17.91477 | 4702 ft | 181 kts | 123° |
| 2026-05-06 18:36 | 42.69569 | 17.92990 | 4591 ft | 184 kts | 122° |
| 2026-05-06 18:37 | 42.69164 | 17.94003 | 4520 ft | 184 kts | 122° |
| 2026-05-06 18:37 | 42.68553 | 17.95539 | 4405 ft | 185 kts | 122° |
| 2026-05-06 18:37 | 42.67942 | 17.97071 | 4343 ft | 183 kts | 122° |
| 2026-05-06 18:37 | 42.67333 | 17.98586 | 4221 ft | 183 kts | 122° |
| 2026-05-06 18:38 | 42.66724 | 18.00103 | 4107 ft | 182 kts | 121° |
| 2026-05-06 18:38 | 42.66119 | 18.01607 | 3989 ft | 181 kts | 121° |
| 2026-05-06 18:38 | 42.65517 | 18.03128 | 3796 ft | 185 kts | 121° |
| 2026-05-06 18:38 | 42.64903 | 18.04685 | 3576 ft | 188 kts | 121° |
| 2026-05-06 18:39 | 42.64281 | 18.06240 | 3460 ft | 186 kts | 121° |
| 2026-05-06 18:39 | 42.63674 | 18.07751 | 3332 ft | 181 kts | 121° |
| 2026-05-06 18:39 | 42.63114 | 18.09189 | 3207 ft | 164 kts | 120° |
| 2026-05-06 18:40 | 42.62095 | 18.11773 | 2695 ft | 148 kts | 120° |
| 2026-05-06 18:40 | 42.61618 | 18.12977 | 2496 ft | 143 kts | 120° |
| 2026-05-06 18:40 | 42.61157 | 18.14143 | 2315 ft | 138 kts | 121° |
| 2026-05-06 18:40 | 42.60703 | 18.15281 | 2141 ft | 136 kts | 120° |
| 2026-05-06 18:41 | 42.60259 | 18.16403 | 1968 ft | 134 kts | 121° |
| 2026-05-06 18:41 | 42.59827 | 18.17496 | 1769 ft | 132 kts | 120° |
| 2026-05-06 18:41 | 42.59386 | 18.18606 | 1613 ft | 136 kts | 120° |
| 2026-05-06 18:41 | 42.58931 | 18.19756 | 1427 ft | 140 kts | 120° |
| 2026-05-06 18:42 | 42.58465 | 18.20935 | 1202 ft | 142 kts | 118° |
| 2026-05-06 18:42 | 42.58010 | 18.22091 | 1016 ft | 137 kts | 118° |
| 2026-05-06 18:42 | 42.57554 | 18.23243 | 808 ft | 139 kts | 118° |
| 2026-05-06 18:42 | 42.57098 | 18.24397 | 625 ft | 140 kts | 117° |
| 2026-05-06 18:43 | 42.56650 | 18.25521 | 534 ft | 126 kts | 118° |
| 2026-05-06 18:43 | 42.56310 | 18.26387 | 532 ft | 83 kts | 118° |
| 2026-05-06 18:43 | 42.56106 | 18.26904 | 534 ft | 51 kts | 118° |
| 2026-05-06 18:43 | 42.55940 | 18.27294 | 531 ft | 37 kts | 140° |
| 2026-05-06 18:44 | 42.55774 | 18.27336 | 533 ft | 13 kts | 213° |
| 2026-05-06 18:44 | 42.55790 | 18.27225 | 533 ft | 13 kts | 299° |
| 2026-05-06 18:44 | 42.55833 | 18.27121 | 533 ft | 13 kts | 297° |
| 2026-05-06 18:44 | 42.55873 | 18.27018 | 533 ft | 12 kts | 300° |
| 2026-05-06 18:45 | 42.55912 | 18.26917 | 533 ft | 12 kts | 294° |
| 2026-05-06 18:45 | 42.55949 | 18.26819 | 533 ft | 12 kts | 297° |
| 2026-05-06 18:45 | 42.55987 | 18.26724 | 533 ft | 11 kts | 299° |
| 2026-05-06 18:45 | 42.56024 | 18.26632 | 533 ft | 11 kts | 298° |
| 2026-05-06 18:46 | 42.56061 | 18.26543 | 533 ft | 11 kts | 299° |
| 2026-05-06 18:46 | 42.56095 | 18.26456 | 533 ft | 10 kts | 298° |
| 2026-05-06 18:46 | 42.56129 | 18.26371 | 533 ft | 10 kts | 299° |
| 2026-05-06 18:46 | 42.56161 | 18.26291 | 533 ft | 7 kts | 298° |
| 2026-05-06 18:47 | 42.56166 | 18.26279 | 533 ft | 2 kts | 298° |
| 2026-05-06 18:47 | 42.56174 | 18.26241 | 533 ft | 6 kts | 264° |
| 2026-05-06 18:47 | 42.56139 | 18.26209 | 533 ft | 6 kts | 209° |
| 2026-05-06 18:47 | 42.56129 | 18.26202 | 533 ft | 1 kts | 209° |
| 2026-05-06 18:48 | 42.56126 | 18.26199 | 533 ft | 0 kts | 208° |